Terminal Aerodrome Forecast
Issued by NWS

Current Version | Previous Version | Text Only | Print | Product List | Glossary On
Versions: 1 2 3 4 5 6 7 8 9 10 11 12 13 14 15 16 17 18
007
FTUS42 KFFC 261124
TAFPDK
TAF
KPDK 261124Z 2612/2712 26004KT P6SM SKC
     FM261500 26009G16KT P6SM FEW040 SCT250
     FM270200 22006KT P6SM FEW250=

USA.gov is the U.S. government's official web portal to all federal, state and local government web resources and services.